createdAt,value
2023-03-12T00:02:18.357Z,97113.69
2023-03-12T00:04:44.970Z,97111.63
2023-03-12T00:07:11.670Z,97111.97
2023-03-12T00:09:39.241Z,97109.38
2023-03-12T00:12:06.611Z,97120.00
2023-03-12T00:14:33.658Z,97118.56
2023-03-12T00:17:00.353Z,97126.72
2023-03-12T00:19:27.328Z,97126.53
2023-03-12T00:21:53.921Z,97127.75
2023-03-12T00:24:20.543Z,97130.34
2023-03-12T00:26:47.910Z,97137.00
2023-03-12T00:29:14.557Z,97139.94
2023-03-12T00:31:41.375Z,97139.31
2023-03-12T00:34:08.027Z,97139.78
2023-03-12T00:36:34.679Z,97148.00
2023-03-12T00:39:01.959Z,97151.16
2023-03-12T00:41:30.488Z,97157.38
2023-03-12T00:43:57.439Z,97160.72
2023-03-12T00:46:24.613Z,97156.28
2023-03-12T00:48:51.775Z,97161.88
2023-03-12T00:51:18.810Z,97166.34
2023-03-12T00:53:45.573Z,97166.47
2023-03-12T00:56:12.398Z,97175.78
2023-03-12T00:58:39.108Z,97171.13
2023-03-12T01:01:06.049Z,97172.78
2023-03-12T01:03:32.935Z,97182.13
2023-03-12T01:05:59.565Z,97171.78
2023-03-12T01:08:26.473Z,97181.34
2023-03-12T01:10:53.326Z,97178.06
2023-03-12T01:13:20.607Z,97181.75
2023-03-12T01:15:47.363Z,97184.22
2023-03-12T01:18:14.012Z,97186.06
2023-03-12T01:20:41.076Z,97189.47
2023-03-12T01:23:08.255Z,97187.63
2023-03-12T01:25:36.119Z,97188.09
2023-03-12T01:28:04.276Z,97194.06
2023-03-12T01:30:31.290Z,97193.22
2023-03-12T01:32:58.200Z,97189.97
2023-03-12T01:35:25.299Z,97188.63
2023-03-12T01:37:53.048Z,97200.13
2023-03-12T01:40:25.406Z,97192.72
2023-03-12T01:42:56.035Z,97194.59
2023-03-12T01:46:10.529Z,97198.31
2023-03-12T01:48:41.786Z,97201.72
2023-03-12T01:51:12.346Z,97194.22
2023-03-12T01:53:41.538Z,97199.97
2023-03-12T01:56:09.059Z,97203.13
2023-03-12T01:58:40.355Z,97200.34
2023-03-12T02:01:07.527Z,97210.91
2023-03-12T02:03:35.894Z,97205.72
2023-03-12T02:06:06.825Z,97211.44
2023-03-12T02:08:38.504Z,97201.34
2023-03-12T02:11:05.108Z,97215.75
2023-03-12T02:13:31.929Z,97209.56
2023-03-12T02:15:58.774Z,97209.53
2023-03-12T02:18:25.599Z,97207.84
2023-03-12T02:21:16.968Z,97222.88
2023-03-12T02:24:11.038Z,97216.13
2023-03-12T02:26:39.117Z,97214.97
2023-03-12T02:29:07.083Z,97221.81
2023-03-12T02:31:40.852Z,97226.63
2023-03-12T02:34:08.582Z,97224.03
2023-03-12T02:36:36.370Z,97230.97
2023-03-12T02:39:03.381Z,97223.47
2023-03-12T02:41:34.242Z,97226.31
2023-03-12T02:44:11.399Z,97229.34
2023-03-12T02:46:42.353Z,97232.06
2023-03-12T02:49:11.894Z,97240.00
2023-03-12T02:51:39.580Z,97229.66
2023-03-12T02:54:06.568Z,97247.34
2023-03-12T02:56:33.930Z,97242.22
2023-03-12T02:59:03.260Z,97239.69
2023-03-12T03:01:34.933Z,97249.22
2023-03-12T03:04:03.002Z,97243.53
2023-03-12T03:06:29.962Z,97248.84
2023-03-12T03:08:56.868Z,97253.38
2023-03-12T03:11:24.705Z,97259.69
2023-03-12T03:13:55.434Z,97258.47
2023-03-12T03:16:23.417Z,97260.13
2023-03-12T03:18:50.232Z,97263.13
2023-03-12T03:21:17.128Z,97260.81
2023-03-12T03:23:47.107Z,97274.38
2023-03-12T03:26:15.178Z,97266.78
2023-03-12T03:31:08.173Z,97272.69
2023-03-12T03:33:39.631Z,97274.44
2023-03-12T03:36:08.951Z,97276.50
2023-03-12T03:38:40.541Z,97282.19
2023-03-12T03:41:08.221Z,97279.38
2023-03-12T03:43:40.253Z,97281.19
2023-03-12T03:46:07.133Z,97288.19
2023-03-12T03:48:38.045Z,97294.34
2023-03-12T03:51:09.220Z,97298.47
2023-03-12T03:53:39.123Z,97302.31
2023-03-12T03:56:08.306Z,97305.81
2023-03-12T03:58:37.906Z,97300.06
2023-03-12T04:01:06.221Z,97310.16
2023-03-12T04:03:33.439Z,97308.91
2023-03-12T04:06:02.358Z,97316.97
2023-03-12T04:08:29.972Z,97314.31
2023-03-12T04:10:56.678Z,97323.44
2023-03-12T04:13:23.436Z,97318.13
2023-03-12T04:15:53.519Z,97328.72
2023-03-12T04:18:20.990Z,97338.63
2023-03-12T04:20:47.879Z,97339.38
2023-03-12T04:23:14.999Z,97337.44
2023-03-12T04:25:41.815Z,97335.91
2023-03-12T04:28:08.917Z,97334.97
2023-03-12T04:30:38.324Z,97341.81
2023-03-12T04:33:06.582Z,97337.59
2023-03-12T04:35:33.970Z,97346.16
2023-03-12T04:38:02.249Z,97338.19
2023-03-12T04:40:29.993Z,97344.34
2023-03-12T04:42:56.857Z,97348.59
2023-03-12T04:45:23.970Z,97355.34
2023-03-12T04:47:50.706Z,97352.16
2023-03-12T04:50:17.863Z,97352.53
2023-03-12T04:52:44.756Z,97351.50
2023-03-12T04:55:11.808Z,97362.88
2023-03-12T04:57:38.493Z,97360.34
2023-03-12T05:00:11.042Z,97363.38
2023-03-12T05:02:38.144Z,97370.91
2023-03-12T05:05:05.565Z,97378.94
2023-03-12T05:07:32.267Z,97375.38
2023-03-12T05:09:59.386Z,97378.63
2023-03-12T05:12:26.135Z,97376.06
2023-03-12T05:14:52.837Z,97379.19
2023-03-12T05:17:19.587Z,97389.72
2023-03-12T05:19:46.722Z,97394.94
2023-03-12T05:22:13.450Z,97401.31
2023-03-12T05:24:40.135Z,97403.44
2023-03-12T05:27:08.575Z,97406.19
2023-03-12T05:29:35.797Z,97409.69
2023-03-12T05:32:04.358Z,97403.22
2023-03-12T05:34:34.200Z,97414.31
2023-03-12T05:37:02.251Z,97419.38
2023-03-12T05:39:30.148Z,97418.06
2023-03-12T05:42:01.947Z,97434.25
2023-03-12T05:44:29.181Z,97439.28
2023-03-12T05:46:58.746Z,97435.34
2023-03-12T05:49:26.454Z,97432.75
2023-03-12T05:51:54.725Z,97447.19
2023-03-12T05:54:23.073Z,97446.88
2023-03-12T05:56:52.124Z,97452.38
2023-03-12T05:59:20.714Z,97458.38
2023-03-12T06:01:48.329Z,97461.72
2023-03-12T06:04:15.812Z,97468.91
2023-03-12T06:06:42.530Z,97467.25
2023-03-12T06:09:09.882Z,97457.34
2023-03-12T06:11:36.580Z,97466.53
2023-03-12T06:14:03.850Z,97472.75
2023-03-12T06:16:31.191Z,97477.16
2023-03-12T06:19:01.943Z,97477.16
2023-03-12T06:21:34.825Z,97479.16
2023-03-12T06:24:02.366Z,97488.91
2023-03-12T06:26:35.834Z,97487.09
2023-03-12T06:29:02.537Z,97478.97
2023-03-12T06:31:29.332Z,97492.59
2023-03-12T06:33:55.970Z,97495.69
2023-03-12T06:36:23.996Z,97501.50
2023-03-12T06:38:50.683Z,97496.16
2023-03-12T06:41:19.234Z,97504.03
2023-03-12T06:43:46.875Z,97499.25
2023-03-12T06:46:17.952Z,97506.00
2023-03-12T06:48:46.216Z,97499.72
2023-03-12T06:51:14.674Z,97495.63
2023-03-12T06:53:42.581Z,97509.03
2023-03-12T06:56:09.967Z,97498.50
2023-03-12T06:58:36.665Z,97499.84
2023-03-12T07:01:04.026Z,97501.94
2023-03-12T07:03:30.776Z,97503.88
2023-03-12T07:05:58.486Z,97506.91
2023-03-12T07:08:26.021Z,97509.53
2023-03-12T07:10:52.668Z,97512.50
2023-03-12T07:13:19.249Z,97516.69
2023-03-12T07:15:46.589Z,97521.09
2023-03-12T07:18:13.421Z,97517.84
2023-03-12T07:20:42.339Z,97530.22
2023-03-12T07:23:09.973Z,97533.78
2023-03-12T07:25:38.282Z,97535.88
2023-03-12T07:28:05.904Z,97538.88
2023-03-12T07:30:33.672Z,97530.91
2023-03-12T07:33:12.255Z,97533.41
2023-03-12T07:35:39.548Z,97547.47
2023-03-12T07:38:07.415Z,97555.38
2023-03-12T07:40:35.130Z,97560.91
2023-03-12T07:43:02.129Z,97571.34
2023-03-12T07:45:32.436Z,97563.72
2023-03-12T07:47:59.228Z,97561.94
2023-03-12T07:50:25.931Z,97560.34
2023-03-12T07:52:52.549Z,97550.66
2023-03-12T07:55:19.272Z,97555.91
2023-03-12T07:57:45.958Z,97564.56
2023-03-12T08:00:13.508Z,97563.75
2023-03-12T08:02:40.285Z,97561.47
2023-03-12T08:05:07.721Z,97559.72
2023-03-12T08:07:35.313Z,97560.44
2023-03-12T08:10:05.110Z,97559.19
2023-03-12T08:12:32.329Z,97554.81
2023-03-12T08:14:59.173Z,97543.03
2023-03-12T08:17:26.386Z,97546.16
2023-03-12T08:19:53.016Z,97546.78
2023-03-12T08:22:19.812Z,97547.63
2023-03-12T08:24:46.503Z,97555.03
2023-03-12T08:27:14.222Z,97550.78
2023-03-12T08:29:41.408Z,97552.09
2023-03-12T08:32:10.716Z,97551.41
2023-03-12T08:34:37.575Z,97539.41
2023-03-12T08:37:04.779Z,97539.25
2023-03-12T08:39:32.041Z,97543.28
2023-03-12T08:41:59.177Z,97543.91
2023-03-12T08:44:26.588Z,97539.66
2023-03-12T08:46:53.698Z,97547.81
2023-03-12T08:49:21.429Z,97543.78
2023-03-12T08:51:48.362Z,97541.63
2023-03-12T08:54:15.273Z,97538.25
2023-03-12T08:56:43.533Z,97542.09
2023-03-12T08:59:13.849Z,97538.69
2023-03-12T09:01:43.559Z,97549.63
2023-03-12T09:04:10.653Z,97545.16
2023-03-12T09:06:38.483Z,97549.59
2023-03-12T09:09:05.835Z,97561.13
2023-03-12T09:11:34.302Z,97548.78
2023-03-12T09:14:33.786Z,97549.16
2023-03-12T09:16:49.073Z,97548.22
2023-03-12T09:19:15.909Z,97532.44
2023-03-12T09:21:42.803Z,97533.94
2023-03-12T09:24:10.361Z,97538.75
2023-03-12T09:26:36.945Z,97539.06
2023-03-12T09:29:03.538Z,97531.19
2023-03-12T09:31:30.188Z,97524.69
2023-03-12T09:33:56.990Z,97525.38
2023-03-12T09:36:23.617Z,97532.88
2023-03-12T09:38:50.246Z,97527.84
2023-03-12T09:41:29.266Z,97534.41
2023-03-12T09:44:10.920Z,97530.91
2023-03-12T09:46:46.996Z,97525.19
2023-03-12T09:49:30.306Z,97529.47
2023-03-12T09:51:59.099Z,97530.06
2023-03-12T09:54:45.813Z,97540.06
2023-03-12T09:57:19.752Z,97532.84
2023-03-12T09:59:46.344Z,97536.56
2023-03-12T10:02:33.797Z,97544.22
2023-03-12T10:05:18.764Z,97537.63
2023-03-12T10:08:37.749Z,97531.94
2023-03-12T10:11:36.648Z,97531.75
2023-03-12T10:14:27.924Z,97537.66
2023-03-12T10:17:31.885Z,97531.56
2023-03-12T10:20:23.285Z,97518.00
2023-03-12T10:22:55.119Z,97510.88
2023-03-12T10:25:44.286Z,97506.00
2023-03-12T10:28:20.016Z,97520.44
2023-03-12T10:30:53.644Z,97517.06
2023-03-12T10:33:21.881Z,97518.34
2023-03-12T10:35:50.093Z,97517.06
2023-03-12T10:38:30.184Z,97525.25
2023-03-12T10:40:56.760Z,97520.81
2023-03-12T10:43:24.026Z,97525.16
2023-03-12T10:46:44.921Z,97521.28
2023-03-12T10:49:23.572Z,97523.72
2023-03-12T10:52:17.879Z,97529.63
2023-03-12T10:54:47.418Z,97522.50
2023-03-12T10:57:15.532Z,97512.50
2023-03-12T10:59:45.469Z,97515.63
2023-03-12T11:02:27.016Z,97509.13
2023-03-12T11:04:54.170Z,97504.16
2023-03-12T11:07:23.363Z,97509.13
2023-03-12T11:10:07.275Z,97510.22
2023-03-12T11:12:37.109Z,97516.72
2023-03-12T11:15:20.998Z,97506.59
2023-03-12T11:17:48.071Z,97516.69
2023-03-12T11:20:20.889Z,97508.09
2023-03-12T11:22:49.502Z,97512.31
2023-03-12T11:25:35.009Z,97518.66
2023-03-12T11:28:03.495Z,97502.75
2023-03-12T11:30:38.458Z,97498.09
2023-03-12T11:33:05.424Z,97494.28
2023-03-12T11:36:03.901Z,97484.69
2023-03-12T11:39:11.048Z,97478.22
2023-03-12T11:42:08.163Z,97472.03
2023-03-12T11:44:49.920Z,97478.22
2023-03-12T11:47:37.001Z,97470.56
2023-03-12T11:50:13.699Z,97463.97
2023-03-12T11:53:18.242Z,97461.09
2023-03-12T11:55:49.649Z,97449.91
2023-03-12T11:58:35.045Z,97451.03
2023-03-12T12:01:26.057Z,97450.09
2023-03-12T12:04:20.311Z,97447.97
2023-03-12T12:07:03.831Z,97436.66
2023-03-12T12:09:33.908Z,97432.41
2023-03-12T12:12:14.958Z,97421.84
2023-03-12T12:14:53.452Z,97424.00
2023-03-12T12:17:30.783Z,97408.03
2023-03-12T12:20:12.097Z,97412.94
2023-03-12T12:23:06.684Z,97413.19
2023-03-12T12:25:39.791Z,97422.31
2023-03-12T12:28:25.403Z,97415.53
2023-03-12T12:31:29.904Z,97414.72
2023-03-12T12:34:01.161Z,97412.56
2023-03-12T12:36:32.010Z,97411.06
2023-03-12T12:39:06.078Z,97417.03
2023-03-12T12:41:37.908Z,97412.66
2023-03-12T12:44:33.227Z,97418.81
2023-03-12T12:47:05.499Z,97417.88
2023-03-12T12:49:48.778Z,97422.09
2023-03-12T12:52:20.137Z,97410.38
2023-03-12T12:55:10.551Z,97411.31
2023-03-12T12:57:54.541Z,97416.91
2023-03-12T13:00:40.401Z,97419.53
2023-03-12T13:03:11.946Z,97422.97
2023-03-12T13:05:58.641Z,97429.09
2023-03-12T13:08:55.345Z,97423.88
2023-03-12T13:11:43.000Z,97415.63
2023-03-12T13:14:09.540Z,97419.06
2023-03-12T13:16:43.110Z,97422.53
2023-03-12T13:19:18.965Z,97422.13
2023-03-12T13:22:10.202Z,97428.19
2023-03-12T13:24:39.778Z,97429.69
2023-03-12T13:27:30.832Z,97426.88
2023-03-12T13:29:57.989Z,97428.56
2023-03-12T13:32:38.005Z,97434.41
2023-03-12T13:35:27.506Z,97427.28
2023-03-12T13:37:54.084Z,97445.09
2023-03-12T13:40:29.753Z,97428.19
2023-03-12T13:43:15.444Z,97432.56
2023-03-12T13:45:48.121Z,97436.78
2023-03-12T13:48:16.142Z,97433.31
2023-03-12T13:50:52.068Z,97431.75
2023-03-12T13:53:27.559Z,97439.34
2023-03-12T13:56:08.516Z,97435.25
2023-03-12T13:59:14.068Z,97437.19
2023-03-12T14:01:43.685Z,97437.34
2023-03-12T14:04:24.722Z,97443.44
2023-03-12T14:06:59.781Z,97441.84
2023-03-12T14:09:50.559Z,97437.91
2023-03-12T14:12:28.612Z,97433.03
2023-03-12T14:14:58.292Z,97426.94
2023-03-12T14:17:28.104Z,97441.00
2023-03-12T14:20:02.652Z,97431.31
2023-03-12T14:22:32.979Z,97422.94
2023-03-12T14:25:21.930Z,97433.44
2023-03-12T14:27:49.002Z,97439.94
2023-03-12T14:30:15.541Z,97434.75
2023-03-12T14:32:43.633Z,97437.31
2023-03-12T14:35:28.257Z,97433.09
2023-03-12T14:38:00.356Z,97436.69
2023-03-12T14:40:50.844Z,97423.22
2023-03-12T14:43:29.606Z,97435.69
2023-03-12T14:46:02.726Z,97431.72
2023-03-12T14:48:35.044Z,97428.38
2023-03-12T14:51:04.071Z,97431.13
2023-03-12T14:53:33.594Z,97424.72
2023-03-12T14:56:13.603Z,97433.63
2023-03-12T14:58:50.188Z,97431.81
2023-03-12T15:01:39.510Z,97434.06
2023-03-12T15:04:15.261Z,97425.13
2023-03-12T15:06:49.087Z,97420.38
2023-03-12T15:09:22.126Z,97415.09
2023-03-12T15:11:59.248Z,97414.72
2023-03-12T15:14:29.332Z,97420.88
2023-03-12T15:16:58.872Z,97414.75
2023-03-12T15:19:33.259Z,97413.06
2023-03-12T15:22:00.631Z,97414.88
2023-03-12T15:24:30.433Z,97407.72
2023-03-12T15:26:57.204Z,97413.88
2023-03-12T15:29:30.434Z,97411.31
2023-03-12T15:31:59.604Z,97408.03
2023-03-12T15:34:32.984Z,97410.47
2023-03-12T15:37:02.108Z,97415.72
2023-03-12T15:39:34.674Z,97423.72
2023-03-12T15:42:16.205Z,97424.22
2023-03-12T15:44:47.065Z,97416.63
2023-03-12T15:47:17.670Z,97400.81
2023-03-12T15:49:50.827Z,97403.41
2023-03-12T15:52:22.137Z,97409.75
2023-03-12T15:55:24.979Z,97410.41
2023-03-12T15:57:55.047Z,97422.16
2023-03-12T16:00:25.358Z,97427.03
2023-03-12T16:02:56.265Z,97430.03
2023-03-12T16:05:41.201Z,97430.22
2023-03-12T16:08:26.619Z,97434.84
2023-03-12T16:10:54.041Z,97429.50
2023-03-12T16:13:23.460Z,97434.69
2023-03-12T16:15:51.000Z,97441.94
2023-03-12T16:18:22.501Z,97442.53
2023-03-12T16:20:51.026Z,97438.78
2023-03-12T16:23:19.052Z,97449.44
2023-03-12T16:26:05.397Z,97454.69
2023-03-12T16:28:35.065Z,97458.00
2023-03-12T16:31:02.364Z,97457.19
2023-03-12T16:33:29.019Z,97463.34
2023-03-12T16:35:56.024Z,97472.19
2023-03-12T16:38:22.723Z,97475.06
2023-03-12T16:40:51.853Z,97483.38
2023-03-12T16:43:24.426Z,97466.59
2023-03-12T16:45:52.735Z,97471.94
2023-03-12T16:48:23.065Z,97476.00
2023-03-12T16:50:57.798Z,97474.81
2023-03-12T16:53:25.528Z,97478.00
2023-03-12T16:55:55.526Z,97472.75
2023-03-12T16:58:24.013Z,97472.44
2023-03-12T17:00:51.819Z,97492.47
2023-03-12T17:03:25.735Z,97494.44
2023-03-12T17:05:53.567Z,97491.03
2023-03-12T17:08:20.210Z,97499.97
2023-03-12T17:10:46.819Z,97503.44
2023-03-12T17:13:19.978Z,97506.66
2023-03-12T17:15:47.258Z,97518.56
2023-03-12T17:18:13.985Z,97512.16
2023-03-12T17:20:42.192Z,97518.91
2023-03-12T17:23:09.438Z,97518.28
2023-03-12T17:25:38.972Z,97526.25
2023-03-12T17:28:06.164Z,97534.34
2023-03-12T17:30:34.394Z,97519.47
2023-03-12T17:33:07.382Z,97503.56
2023-03-12T17:35:35.028Z,97512.97
2023-03-12T17:38:01.935Z,97518.56
2023-03-12T17:40:28.886Z,97519.50
2023-03-12T17:42:55.576Z,97514.50
2023-03-12T17:45:22.713Z,97509.75
2023-03-12T17:47:49.444Z,97506.09
2023-03-12T17:50:17.232Z,97520.63
2023-03-12T17:52:44.321Z,97523.00
2023-03-12T17:55:11.947Z,97527.72
2023-03-12T17:57:39.104Z,97537.56
2023-03-12T18:00:12.685Z,97535.09
2023-03-12T18:02:40.954Z,97538.66
2023-03-12T18:05:09.828Z,97531.88
2023-03-12T18:07:37.203Z,97528.88
2023-03-12T18:10:06.488Z,97529.41
2023-03-12T18:12:34.417Z,97546.56
2023-03-12T18:15:02.022Z,97539.00
2023-03-12T18:17:28.647Z,97535.78
2023-03-12T18:19:55.295Z,97533.63
2023-03-12T18:22:21.889Z,97544.38
2023-03-12T18:24:48.618Z,97541.66
2023-03-12T18:27:15.200Z,97558.78
2023-03-12T18:29:42.386Z,97557.44
2023-03-12T18:32:09.386Z,97557.84
2023-03-12T18:34:36.139Z,97556.66
2023-03-12T18:37:02.751Z,97564.56
2023-03-12T18:39:29.375Z,97554.56
2023-03-12T18:41:56.283Z,97565.25
2023-03-12T18:44:23.018Z,97566.59
2023-03-12T18:46:51.876Z,97565.97
2023-03-12T18:49:18.704Z,97571.50
2023-03-12T18:51:45.630Z,97581.63
2023-03-12T18:54:12.808Z,97582.66
2023-03-12T18:56:41.133Z,97576.09
2023-03-12T18:59:09.975Z,97575.44
2023-03-12T19:01:37.164Z,97575.56
2023-03-12T19:04:04.499Z,97576.47
2023-03-12T19:06:44.317Z,97568.81
2023-03-12T19:09:16.702Z,97561.91
2023-03-12T19:11:43.368Z,97567.31
2023-03-12T19:14:10.480Z,97563.56
2023-03-12T19:16:37.406Z,97553.69
2023-03-12T19:19:04.111Z,97553.47
2023-03-12T19:21:30.992Z,97574.47
2023-03-12T19:23:58.075Z,97577.28
2023-03-12T19:26:26.125Z,97572.28
2023-03-12T19:28:52.968Z,97572.69
2023-03-12T19:31:19.618Z,97578.47
2023-03-12T19:33:46.479Z,97580.75
2023-03-12T19:36:13.408Z,97587.31
2023-03-12T19:38:40.345Z,97580.75
2023-03-12T19:41:09.061Z,97596.84
2023-03-12T19:43:37.000Z,97599.72
2023-03-12T19:46:04.346Z,97611.47
2023-03-12T19:48:31.381Z,97593.81
2023-03-12T19:50:58.086Z,97607.22
2023-03-12T19:53:25.017Z,97599.41
2023-03-12T19:55:51.970Z,97608.91
2023-03-12T19:58:18.985Z,97616.81
2023-03-12T20:00:45.877Z,97602.44
2023-03-12T20:03:12.537Z,97616.38
2023-03-12T20:05:43.041Z,97609.94
2023-03-12T20:08:11.162Z,97613.19
2023-03-12T20:10:38.887Z,97617.97
2023-03-12T20:13:05.682Z,97622.31
2023-03-12T20:15:32.273Z,97617.31
2023-03-12T20:17:58.924Z,97621.41
2023-03-12T20:20:25.851Z,97622.31
2023-03-12T20:22:52.540Z,97624.34
2023-03-12T20:25:19.478Z,97619.47
2023-03-12T20:27:47.472Z,97633.66
2023-03-12T20:30:14.645Z,97642.72
2023-03-12T20:32:42.766Z,97636.72
2023-03-12T20:35:10.864Z,97632.81
2023-03-12T20:37:37.535Z,97620.50
2023-03-12T20:40:05.291Z,97617.50
2023-03-12T20:42:31.971Z,97619.34
2023-03-12T20:44:59.015Z,97630.88
2023-03-12T20:47:26.727Z,97613.63
2023-03-12T20:49:53.428Z,97608.97
2023-03-12T20:52:20.446Z,97611.41
2023-03-12T20:54:47.323Z,97619.19
2023-03-12T20:57:14.320Z,97610.75
2023-03-12T20:59:41.245Z,97598.31
2023-03-12T21:02:08.253Z,97598.66
2023-03-12T21:04:35.129Z,97612.31
2023-03-12T21:07:02.092Z,97624.72
2023-03-12T21:09:29.022Z,97637.44
2023-03-12T21:11:56.602Z,97629.25
2023-03-12T21:14:23.496Z,97632.53
2023-03-12T21:16:51.001Z,97629.44
2023-03-12T21:19:18.820Z,97635.00
2023-03-12T21:21:45.417Z,97642.34
2023-03-12T21:24:12.206Z,97647.91
2023-03-12T21:26:39.272Z,97640.31
2023-03-12T21:29:06.622Z,97636.22
2023-03-12T21:31:33.264Z,97632.72
2023-03-12T21:33:59.982Z,97644.59
2023-03-12T21:36:27.099Z,97628.56
2023-03-12T21:38:53.913Z,97631.78
2023-03-12T21:41:21.812Z,97637.31
2023-03-12T21:43:49.240Z,97645.47
2023-03-12T21:46:19.318Z,97643.22
2023-03-12T21:48:48.584Z,97634.63
2023-03-12T21:51:17.842Z,97636.53
2023-03-12T21:53:44.783Z,97635.41
2023-03-12T21:56:12.133Z,97638.31
2023-03-12T21:58:38.913Z,97642.91
2023-03-12T22:01:14.465Z,97639.63
2023-03-12T22:03:43.497Z,97640.16
2023-03-12T22:06:11.765Z,97642.34
2023-03-12T22:08:40.043Z,97643.50
2023-03-12T22:11:08.292Z,97638.69
2023-03-12T22:13:35.558Z,97648.81
2023-03-12T22:16:06.711Z,97650.22
2023-03-12T22:18:37.371Z,97640.59
2023-03-12T22:21:07.759Z,97641.53
2023-03-12T22:23:36.253Z,97643.94
2023-03-12T22:26:04.927Z,97657.09
2023-03-12T22:28:33.045Z,97657.59
2023-03-12T22:31:05.411Z,97656.41
2023-03-12T22:33:32.402Z,97649.06
2023-03-12T22:35:59.213Z,97660.78
2023-03-12T22:38:25.900Z,97660.00
2023-03-12T22:40:55.383Z,97660.44
2023-03-12T22:43:22.431Z,97665.44
2023-03-12T22:45:53.757Z,97669.94
2023-03-12T22:48:20.516Z,97670.38
2023-03-12T22:50:56.179Z,97671.72
2023-03-12T22:53:23.309Z,97665.13
2023-03-12T22:55:58.115Z,97664.03
2023-03-12T22:58:24.743Z,97666.13
2023-03-12T23:00:59.348Z,97666.06
2023-03-12T23:03:26.445Z,97667.78
2023-03-12T23:05:53.128Z,97673.97
2023-03-12T23:08:19.786Z,97667.47
2023-03-12T23:10:58.047Z,97671.81
2023-03-12T23:13:25.910Z,97658.28
2023-03-12T23:15:52.814Z,97667.22
2023-03-12T23:18:20.148Z,97662.84
2023-03-12T23:20:47.346Z,97661.44
2023-03-12T23:23:16.720Z,97655.94
2023-03-12T23:25:51.553Z,97653.91
2023-03-12T23:28:18.161Z,97655.75
2023-03-12T23:30:53.426Z,97663.59
2023-03-12T23:33:20.055Z,97669.63
2023-03-12T23:35:58.027Z,97661.59
2023-03-12T23:38:25.110Z,97659.84
2023-03-12T23:40:52.139Z,97664.78
2023-03-12T23:43:18.842Z,97662.00
2023-03-12T23:45:45.491Z,97659.91
2023-03-12T23:48:12.171Z,97656.97
2023-03-12T23:50:38.855Z,97666.06
2023-03-12T23:53:05.443Z,97662.09
2023-03-12T23:55:32.014Z,97651.41
2023-03-12T23:57:58.637Z,97656.59
